sensor_id;sensor_type;location;lat;lon;timestamp;temperature;humidity
13346;DHT22;6742;48.036;15.780;2023-09-18T00:01:34;16.50;99.90
13346;DHT22;6742;48.036;15.780;2023-09-18T00:04:05;16.50;99.90
13346;DHT22;6742;48.036;15.780;2023-09-18T00:06:32;16.40;99.90
13346;DHT22;6742;48.036;15.780;2023-09-18T00:08:59;16.40;99.90
13346;DHT22;6742;48.036;15.780;2023-09-18T00:11:27;16.40;99.90
13346;DHT22;6742;48.036;15.780;2023-09-18T00:13:54;16.30;99.90
13346;DHT22;6742;48.036;15.780;2023-09-18T00:16:21;16.30;99.90
13346;DHT22;6742;48.036;15.780;2023-09-18T00:18:49;16.20;99.90
13346;DHT22;6742;48.036;15.780;2023-09-18T00:21:16;16.20;99.90
13346;DHT22;6742;48.036;15.780;2023-09-18T00:23:43;16.10;99.90
13346;DHT22;6742;48.036;15.780;2023-09-18T00:26:11;16.10;99.90
13346;DHT22;6742;48.036;15.780;2023-09-18T00:28:38;16.20;99.90
13346;DHT22;6742;48.036;15.780;2023-09-18T00:31:05;16.30;99.90
13346;DHT22;6742;48.036;15.780;2023-09-18T00:33:32;16.40;99.90
13346;DHT22;6742;48.036;15.780;2023-09-18T00:36:01;16.40;99.90
13346;DHT22;6742;48.036;15.780;2023-09-18T00:38:28;16.40;99.90
13346;DHT22;6742;48.036;15.780;2023-09-18T00:40:55;16.40;99.90
13346;DHT22;6742;48.036;15.780;2023-09-18T00:43:22;16.50;99.90
13346;DHT22;6742;48.036;15.780;2023-09-18T00:45:49;16.50;99.90
13346;DHT22;6742;48.036;15.780;2023-09-18T00:48:16;16.50;99.90
13346;DHT22;6742;48.036;15.780;2023-09-18T00:50:44;16.50;99.90
13346;DHT22;6742;48.036;15.780;2023-09-18T00:53:14;16.40;99.90
13346;DHT22;6742;48.036;15.780;2023-09-18T00:55:42;16.30;99.90
13346;DHT22;6742;48.036;15.780;2023-09-18T00:58:10;16.20;99.90
13346;DHT22;6742;48.036;15.780;2023-09-18T01:00:37;16.20;99.90
13346;DHT22;6742;48.036;15.780;2023-09-18T01:03:04;16.10;99.90
13346;DHT22;6742;48.036;15.780;2023-09-18T01:05:34;16.10;99.90
13346;DHT22;6742;48.036;15.780;2023-09-18T01:08:01;16.10;99.90
13346;DHT22;6742;48.036;15.780;2023-09-18T01:10:40;16.20;99.90
13346;DHT22;6742;48.036;15.780;2023-09-18T01:13:17;16.20;99.90
13346;DHT22;6742;48.036;15.780;2023-09-18T01:15:50;16.20;99.90
13346;DHT22;6742;48.036;15.780;2023-09-18T01:18:18;16.20;99.90
13346;DHT22;6742;48.036;15.780;2023-09-18T01:20:45;16.20;99.90
13346;DHT22;6742;48.036;15.780;2023-09-18T01:23:14;16.10;99.90
13346;DHT22;6742;48.036;15.780;2023-09-18T01:25:40;16.10;99.90
13346;DHT22;6742;48.036;15.780;2023-09-18T01:28:07;16.00;99.90
13346;DHT22;6742;48.036;15.780;2023-09-18T01:30:34;16.00;99.90
13346;DHT22;6742;48.036;15.780;2023-09-18T01:33:03;16.00;99.90
13346;DHT22;6742;48.036;15.780;2023-09-18T01:35:31;15.90;99.90
13346;DHT22;6742;48.036;15.780;2023-09-18T01:38:00;16.00;99.90
13346;DHT22;6742;48.036;15.780;2023-09-18T01:40:31;16.00;99.90
13346;DHT22;6742;48.036;15.780;2023-09-18T01:42:58;16.00;99.90
13346;DHT22;6742;48.036;15.780;2023-09-18T01:45:25;16.00;99.90
13346;DHT22;6742;48.036;15.780;2023-09-18T01:47:52;16.00;99.90
13346;DHT22;6742;48.036;15.780;2023-09-18T01:50:19;16.00;99.90
13346;DHT22;6742;48.036;15.780;2023-09-18T01:52:46;16.00;99.90
13346;DHT22;6742;48.036;15.780;2023-09-18T01:55:13;16.10;99.90
13346;DHT22;6742;48.036;15.780;2023-09-18T01:57:41;16.00;99.90
13346;DHT22;6742;48.036;15.780;2023-09-18T02:00:09;16.10;99.90
13346;DHT22;6742;48.036;15.780;2023-09-18T02:02:37;16.10;99.90
13346;DHT22;6742;48.036;15.780;2023-09-18T02:05:05;16.10;99.90
13346;DHT22;6742;48.036;15.780;2023-09-18T02:07:32;16.00;99.90
13346;DHT22;6742;48.036;15.780;2023-09-18T02:09:59;16.00;99.90
13346;DHT22;6742;48.036;15.780;2023-09-18T02:12:26;16.00;99.90
13346;DHT22;6742;48.036;15.780;2023-09-18T02:14:54;16.00;99.90
13346;DHT22;6742;48.036;15.780;2023-09-18T02:17:22;15.90;99.90
13346;DHT22;6742;48.036;15.780;2023-09-18T02:19:50;15.90;99.90
13346;DHT22;6742;48.036;15.780;2023-09-18T02:22:17;15.90;99.90
13346;DHT22;6742;48.036;15.780;2023-09-18T02:24:44;15.90;99.90
13346;DHT22;6742;48.036;15.780;2023-09-18T02:27:10;15.90;99.90
13346;DHT22;6742;48.036;15.780;2023-09-18T02:29:37;15.90;99.90
13346;DHT22;6742;48.036;15.780;2023-09-18T02:32:06;15.90;99.90
13346;DHT22;6742;48.036;15.780;2023-09-18T02:34:33;15.90;99.90
13346;DHT22;6742;48.036;15.780;2023-09-18T02:37:00;15.90;99.90
13346;DHT22;6742;48.036;15.780;2023-09-18T02:39:27;15.90;99.90
13346;DHT22;6742;48.036;15.780;2023-09-18T02:41:54;15.80;99.90
13346;DHT22;6742;48.036;15.780;2023-09-18T02:44:22;15.80;99.90
13346;DHT22;6742;48.036;15.780;2023-09-18T02:46:48;15.70;99.90
13346;DHT22;6742;48.036;15.780;2023-09-18T02:49:17;15.70;99.90
13346;DHT22;6742;48.036;15.780;2023-09-18T02:51:44;15.60;99.90
13346;DHT22;6742;48.036;15.780;2023-09-18T02:54:10;15.50;99.90
13346;DHT22;6742;48.036;15.780;2023-09-18T02:56:37;15.50;99.90
13346;DHT22;6742;48.036;15.780;2023-09-18T02:59:04;15.50;99.90
13346;DHT22;6742;48.036;15.780;2023-09-18T03:01:31;15.50;99.90
13346;DHT22;6742;48.036;15.780;2023-09-18T03:03:58;15.50;99.90
13346;DHT22;6742;48.036;15.780;2023-09-18T03:06:26;15.50;99.90
13346;DHT22;6742;48.036;15.780;2023-09-18T03:08:53;15.50;99.90
13346;DHT22;6742;48.036;15.780;2023-09-18T03:11:21;15.50;99.90
13346;DHT22;6742;48.036;15.780;2023-09-18T03:13:47;15.50;99.90
13346;DHT22;6742;48.036;15.780;2023-09-18T03:16:14;15.60;99.90
13346;DHT22;6742;48.036;15.780;2023-09-18T03:18:42;15.60;99.90
13346;DHT22;6742;48.036;15.780;2023-09-18T03:21:09;15.70;99.90
13346;DHT22;6742;48.036;15.780;2023-09-18T03:23:37;15.70;99.90
13346;DHT22;6742;48.036;15.780;2023-09-18T03:26:04;15.70;99.90
13346;DHT22;6742;48.036;15.780;2023-09-18T03:28:31;15.80;99.90
13346;DHT22;6742;48.036;15.780;2023-09-18T03:30:58;15.70;99.90
13346;DHT22;6742;48.036;15.780;2023-09-18T03:33:25;15.80;99.90
13346;DHT22;6742;48.036;15.780;2023-09-18T03:35:53;15.80;99.90
13346;DHT22;6742;48.036;15.780;2023-09-18T03:38:23;15.80;99.90
13346;DHT22;6742;48.036;15.780;2023-09-18T03:40:51;15.80;99.90
13346;DHT22;6742;48.036;15.780;2023-09-18T03:43:18;15.80;99.90
13346;DHT22;6742;48.036;15.780;2023-09-18T03:45:45;15.80;99.90
13346;DHT22;6742;48.036;15.780;2023-09-18T03:48:12;15.70;99.90
13346;DHT22;6742;48.036;15.780;2023-09-18T03:50:39;15.70;99.90
13346;DHT22;6742;48.036;15.780;2023-09-18T03:53:06;15.60;99.90
13346;DHT22;6742;48.036;15.780;2023-09-18T03:55:33;15.60;99.90
13346;DHT22;6742;48.036;15.780;2023-09-18T03:58:01;15.60;99.90
13346;DHT22;6742;48.036;15.780;2023-09-18T04:00:29;15.60;99.90
13346;DHT22;6742;48.036;15.780;2023-09-18T04:02:56;15.60;99.90
13346;DHT22;6742;48.036;15.780;2023-09-18T04:05:23;15.70;99.90
13346;DHT22;6742;48.036;15.780;2023-09-18T04:07:50;15.60;99.90
13346;DHT22;6742;48.036;15.780;2023-09-18T04:10:17;15.70;99.90
13346;DHT22;6742;48.036;15.780;2023-09-18T04:12:48;15.70;99.90
13346;DHT22;6742;48.036;15.780;2023-09-18T04:15:18;15.70;99.90
13346;DHT22;6742;48.036;15.780;2023-09-18T04:17:45;15.70;99.90
13346;DHT22;6742;48.036;15.780;2023-09-18T04:20:12;15.70;99.90
13346;DHT22;6742;48.036;15.780;2023-09-18T04:22:43;15.60;99.90
13346;DHT22;6742;48.036;15.780;2023-09-18T04:25:11;15.60;99.90
13346;DHT22;6742;48.036;15.780;2023-09-18T04:27:38;15.60;99.90
13346;DHT22;6742;48.036;15.780;2023-09-18T04:30:06;15.50;99.90
13346;DHT22;6742;48.036;15.780;2023-09-18T04:32:36;15.50;99.90
13346;DHT22;6742;48.036;15.780;2023-09-18T04:35:03;15.40;99.90
13346;DHT22;6742;48.036;15.780;2023-09-18T04:37:35;15.40;99.90
13346;DHT22;6742;48.036;15.780;2023-09-18T04:40:03;15.50;99.90
13346;DHT22;6742;48.036;15.780;2023-09-18T04:42:30;15.50;99.90
13346;DHT22;6742;48.036;15.780;2023-09-18T04:44:57;15.50;99.90
13346;DHT22;6742;48.036;15.780;2023-09-18T04:47:24;15.50;99.90
13346;DHT22;6742;48.036;15.780;2023-09-18T04:49:52;15.60;99.90
13346;DHT22;6742;48.036;15.780;2023-09-18T04:52:19;15.60;99.90
13346;DHT22;6742;48.036;15.780;2023-09-18T04:54:46;15.60;99.90
13346;DHT22;6742;48.036;15.780;2023-09-18T04:57:16;15.60;99.90
13346;DHT22;6742;48.036;15.780;2023-09-18T04:59:43;15.60;99.90
13346;DHT22;6742;48.036;15.780;2023-09-18T05:02:09;15.60;99.90
13346;DHT22;6742;48.036;15.780;2023-09-18T05:04:36;15.70;99.90
13346;DHT22;6742;48.036;15.780;2023-09-18T05:07:05;15.60;99.90
13346;DHT22;6742;48.036;15.780;2023-09-18T05:09:31;15.70;99.90
13346;DHT22;6742;48.036;15.780;2023-09-18T05:12:00;15.70;99.90
13346;DHT22;6742;48.036;15.780;2023-09-18T05:14:27;15.80;99.90
13346;DHT22;6742;48.036;15.780;2023-09-18T05:16:54;15.80;99.90
13346;DHT22;6742;48.036;15.780;2023-09-18T05:19:21;15.80;99.90
13346;DHT22;6742;48.036;15.780;2023-09-18T05:21:48;15.70;99.90
13346;DHT22;6742;48.036;15.780;2023-09-18T05:24:17;15.80;99.90
13346;DHT22;6742;48.036;15.780;2023-09-18T05:26:52;15.80;99.90
13346;DHT22;6742;48.036;15.780;2023-09-18T05:29:19;15.80;99.90
13346;DHT22;6742;48.036;15.780;2023-09-18T05:31:46;15.80;99.90
13346;DHT22;6742;48.036;15.780;2023-09-18T05:34:13;16.00;99.90
13346;DHT22;6742;48.036;15.780;2023-09-18T05:36:40;16.10;99.90
13346;DHT22;6742;48.036;15.780;2023-09-18T05:39:07;16.30;99.90
13346;DHT22;6742;48.036;15.780;2023-09-18T05:41:37;16.60;99.90
13346;DHT22;6742;48.036;15.780;2023-09-18T05:44:06;16.90;99.90
13346;DHT22;6742;48.036;15.780;2023-09-18T05:46:34;17.10;99.90
13346;DHT22;6742;48.036;15.780;2023-09-18T05:49:01;17.30;99.90
13346;DHT22;6742;48.036;15.780;2023-09-18T05:51:28;17.30;99.90
13346;DHT22;6742;48.036;15.780;2023-09-18T05:53:55;18.10;99.90
13346;DHT22;6742;48.036;15.780;2023-09-18T05:56:22;19.40;99.90
13346;DHT22;6742;48.036;15.780;2023-09-18T05:58:51;20.90;99.90
13346;DHT22;6742;48.036;15.780;2023-09-18T06:01:18;22.30;99.90
13346;DHT22;6742;48.036;15.780;2023-09-18T06:03:45;23.50;99.90
13346;DHT22;6742;48.036;15.780;2023-09-18T06:06:13;24.20;99.90
13346;DHT22;6742;48.036;15.780;2023-09-18T06:08:40;24.10;99.90
13346;DHT22;6742;48.036;15.780;2023-09-18T06:11:07;23.30;99.90
13346;DHT22;6742;48.036;15.780;2023-09-18T06:13:34;22.30;99.90
13346;DHT22;6742;48.036;15.780;2023-09-18T06:16:05;21.30;99.90
13346;DHT22;6742;48.036;15.780;2023-09-18T06:18:33;20.30;99.90
13346;DHT22;6742;48.036;15.780;2023-09-18T06:21:03;20.80;99.90
13346;DHT22;6742;48.036;15.780;2023-09-18T06:23:30;21.10;99.90
13346;DHT22;6742;48.036;15.780;2023-09-18T06:25:57;21.10;99.90
13346;DHT22;6742;48.036;15.780;2023-09-18T06:28:25;21.70;99.90
13346;DHT22;6742;48.036;15.780;2023-09-18T06:30:52;22.50;99.90
13346;DHT22;6742;48.036;15.780;2023-09-18T06:33:21;23.20;99.90
13346;DHT22;6742;48.036;15.780;2023-09-18T06:35:47;24.40;99.90
13346;DHT22;6742;48.036;15.780;2023-09-18T06:38:14;24.90;99.90
13346;DHT22;6742;48.036;15.780;2023-09-18T06:40:41;25.40;99.90
13346;DHT22;6742;48.036;15.780;2023-09-18T06:43:08;26.10;99.90
13346;DHT22;6742;48.036;15.780;2023-09-18T06:45:35;26.90;99.90
13346;DHT22;6742;48.036;15.780;2023-09-18T06:48:04;27.50;99.00
13346;DHT22;6742;48.036;15.780;2023-09-18T06:50:34;27.50;98.80
13346;DHT22;6742;48.036;15.780;2023-09-18T06:53:02;27.40;98.90
13346;DHT22;6742;48.036;15.780;2023-09-18T06:55:29;27.10;99.60
13346;DHT22;6742;48.036;15.780;2023-09-18T06:57:56;27.00;99.30
13346;DHT22;6742;48.036;15.780;2023-09-18T07:00:23;26.50;99.80
13346;DHT22;6742;48.036;15.780;2023-09-18T07:02:50;26.50;99.90
13346;DHT22;6742;48.036;15.780;2023-09-18T07:05:18;26.70;99.90
13346;DHT22;6742;48.036;15.780;2023-09-18T07:07:46;26.50;99.90
13346;DHT22;6742;48.036;15.780;2023-09-18T07:10:13;27.00;98.60
13346;DHT22;6742;48.036;15.780;2023-09-18T07:12:39;27.10;98.70
13346;DHT22;6742;48.036;15.780;2023-09-18T07:15:07;27.10;98.60
13346;DHT22;6742;48.036;15.780;2023-09-18T07:17:34;27.10;98.30
13346;DHT22;6742;48.036;15.780;2023-09-18T07:20:02;27.20;98.50
13346;DHT22;6742;48.036;15.780;2023-09-18T07:22:35;27.00;99.50
13346;DHT22;6742;48.036;15.780;2023-09-18T07:25:04;26.90;98.80
13346;DHT22;6742;48.036;15.780;2023-09-18T07:27:32;27.10;99.20
13346;DHT22;6742;48.036;15.780;2023-09-18T07:29:59;27.10;98.20
13346;DHT22;6742;48.036;15.780;2023-09-18T07:32:26;27.00;98.10
13346;DHT22;6742;48.036;15.780;2023-09-18T07:34:53;26.80;98.60
13346;DHT22;6742;48.036;15.780;2023-09-18T07:37:21;26.60;99.50
13346;DHT22;6742;48.036;15.780;2023-09-18T07:39:48;26.30;99.20
13346;DHT22;6742;48.036;15.780;2023-09-18T07:42:17;26.40;99.40
13346;DHT22;6742;48.036;15.780;2023-09-18T07:44:44;26.50;99.90
13346;DHT22;6742;48.036;15.780;2023-09-18T07:47:11;26.50;99.80
13346;DHT22;6742;48.036;15.780;2023-09-18T07:49:38;26.30;99.70
13346;DHT22;6742;48.036;15.780;2023-09-18T07:52:05;26.50;99.80
13346;DHT22;6742;48.036;15.780;2023-09-18T07:54:32;26.40;99.90
13346;DHT22;6742;48.036;15.780;2023-09-18T07:56:59;26.50;99.80
13346;DHT22;6742;48.036;15.780;2023-09-18T07:59:28;26.50;99.90
13346;DHT22;6742;48.036;15.780;2023-09-18T08:01:55;26.70;99.00
13346;DHT22;6742;48.036;15.780;2023-09-18T08:04:25;27.20;98.10
13346;DHT22;6742;48.036;15.780;2023-09-18T08:06:52;27.60;98.00
13346;DHT22;6742;48.036;15.780;2023-09-18T08:09:19;28.00;98.80
13346;DHT22;6742;48.036;15.780;2023-09-18T08:11:46;28.20;98.20
13346;DHT22;6742;48.036;15.780;2023-09-18T08:14:15;28.30;98.00
13346;DHT22;6742;48.036;15.780;2023-09-18T08:16:44;28.30;98.10
13346;DHT22;6742;48.036;15.780;2023-09-18T08:19:15;28.00;97.80
13346;DHT22;6742;48.036;15.780;2023-09-18T08:21:42;27.50;97.90
13346;DHT22;6742;48.036;15.780;2023-09-18T08:24:09;27.20;98.50
13346;DHT22;6742;48.036;15.780;2023-09-18T08:26:36;27.10;98.80
13346;DHT22;6742;48.036;15.780;2023-09-18T08:29:03;26.90;99.00
13346;DHT22;6742;48.036;15.780;2023-09-18T08:31:31;26.50;99.50
13346;DHT22;6742;48.036;15.780;2023-09-18T08:33:59;26.30;99.90
13346;DHT22;6742;48.036;15.780;2023-09-18T08:36:26;26.50;99.90
13346;DHT22;6742;48.036;15.780;2023-09-18T08:38:54;26.70;99.90
13346;DHT22;6742;48.036;15.780;2023-09-18T08:41:23;27.10;99.90
13346;DHT22;6742;48.036;15.780;2023-09-18T08:43:53;27.20;99.90
13346;DHT22;6742;48.036;15.780;2023-09-18T08:46:23;27.30;99.90
13346;DHT22;6742;48.036;15.780;2023-09-18T08:48:50;27.40;99.90
13346;DHT22;6742;48.036;15.780;2023-09-18T08:51:19;28.10;99.80
13346;DHT22;6742;48.036;15.780;2023-09-18T08:53:47;28.50;99.30
13346;DHT22;6742;48.036;15.780;2023-09-18T08:56:15;28.60;99.50
13346;DHT22;6742;48.036;15.780;2023-09-18T08:58:44;28.60;98.30
13346;DHT22;6742;48.036;15.780;2023-09-18T09:01:11;28.60;97.70
13346;DHT22;6742;48.036;15.780;2023-09-18T09:03:39;28.60;98.10
13346;DHT22;6742;48.036;15.780;2023-09-18T09:06:08;29.10;98.30
13346;DHT22;6742;48.036;15.780;2023-09-18T09:08:36;29.60;98.00
13346;DHT22;6742;48.036;15.780;2023-09-18T09:11:06;29.90;96.80
13346;DHT22;6742;48.036;15.780;2023-09-18T09:13:34;29.90;96.00
13346;DHT22;6742;48.036;15.780;2023-09-18T09:16:01;29.60;96.50
13346;DHT22;6742;48.036;15.780;2023-09-18T09:18:30;29.50;96.90
13346;DHT22;6742;48.036;15.780;2023-09-18T09:21:03;28.80;97.20
13346;DHT22;6742;48.036;15.780;2023-09-18T09:23:47;28.50;98.50
13346;DHT22;6742;48.036;15.780;2023-09-18T09:26:18;28.30;97.10
13346;DHT22;6742;48.036;15.780;2023-09-18T09:28:46;28.40;97.70
13346;DHT22;6742;48.036;15.780;2023-09-18T09:31:23;28.90;96.30
13346;DHT22;6742;48.036;15.780;2023-09-18T09:33:54;29.40;97.50
13346;DHT22;6742;48.036;15.780;2023-09-18T09:36:22;29.90;96.20
13346;DHT22;6742;48.036;15.780;2023-09-18T09:38:54;30.20;95.60
13346;DHT22;6742;48.036;15.780;2023-09-18T09:41:21;30.50;94.30
13346;DHT22;6742;48.036;15.780;2023-09-18T09:43:48;30.80;94.60
13346;DHT22;6742;48.036;15.780;2023-09-18T09:46:17;30.90;93.60
13346;DHT22;6742;48.036;15.780;2023-09-18T09:49:00;31.10;93.90
13346;DHT22;6742;48.036;15.780;2023-09-18T09:51:27;31.20;93.70
13346;DHT22;6742;48.036;15.780;2023-09-18T09:53:56;31.60;93.20
13346;DHT22;6742;48.036;15.780;2023-09-18T09:56:40;31.40;91.80
13346;DHT22;6742;48.036;15.780;2023-09-18T09:59:07;31.00;91.80
13346;DHT22;6742;48.036;15.780;2023-09-18T10:01:35;30.90;92.60
13346;DHT22;6742;48.036;15.780;2023-09-18T10:04:05;30.60;92.40
13346;DHT22;6742;48.036;15.780;2023-09-18T10:06:34;30.50;93.80
13346;DHT22;6742;48.036;15.780;2023-09-18T10:09:03;30.50;92.80
13346;DHT22;6742;48.036;15.780;2023-09-18T10:11:31;30.60;93.40
13346;DHT22;6742;48.036;15.780;2023-09-18T10:14:09;30.60;93.00
13346;DHT22;6742;48.036;15.780;2023-09-18T10:16:40;30.60;92.80
13346;DHT22;6742;48.036;15.780;2023-09-18T10:19:20;30.50;92.80
13346;DHT22;6742;48.036;15.780;2023-09-18T10:21:53;30.50;92.80
13346;DHT22;6742;48.036;15.780;2023-09-18T10:24:28;30.20;92.90
13346;DHT22;6742;48.036;15.780;2023-09-18T10:26:59;30.20;93.70
13346;DHT22;6742;48.036;15.780;2023-09-18T10:29:29;30.40;93.90
13346;DHT22;6742;48.036;15.780;2023-09-18T10:31:57;30.50;92.80
13346;DHT22;6742;48.036;15.780;2023-09-18T10:34:24;30.60;93.60
13346;DHT22;6742;48.036;15.780;2023-09-18T10:36:53;30.80;94.30
13346;DHT22;6742;48.036;15.780;2023-09-18T10:39:21;30.90;93.40
13346;DHT22;6742;48.036;15.780;2023-09-18T10:41:53;31.10;93.70
13346;DHT22;6742;48.036;15.780;2023-09-18T10:44:20;31.20;93.10
13346;DHT22;6742;48.036;15.780;2023-09-18T10:46:47;31.10;93.60
13346;DHT22;6742;48.036;15.780;2023-09-18T10:49:14;31.20;92.60
13346;DHT22;6742;48.036;15.780;2023-09-18T10:51:43;31.40;92.60
13346;DHT22;6742;48.036;15.780;2023-09-18T10:54:11;31.40;92.50
13346;DHT22;6742;48.036;15.780;2023-09-18T10:56:38;31.40;91.50
13346;DHT22;6742;48.036;15.780;2023-09-18T10:59:07;31.40;93.30
13346;DHT22;6742;48.036;15.780;2023-09-18T11:01:35;31.30;91.40
13346;DHT22;6742;48.036;15.780;2023-09-18T11:04:05;31.10;92.40
13346;DHT22;6742;48.036;15.780;2023-09-18T11:07:01;31.10;92.80
13346;DHT22;6742;48.036;15.780;2023-09-18T11:09:31;31.10;92.10
13346;DHT22;6742;48.036;15.780;2023-09-18T11:12:03;30.90;92.90
13346;DHT22;6742;48.036;15.780;2023-09-18T11:14:45;30.90;93.30
13346;DHT22;6742;48.036;15.780;2023-09-18T11:17:35;31.00;92.80
13346;DHT22;6742;48.036;15.780;2023-09-18T11:20:07;30.90;93.30
13346;DHT22;6742;48.036;15.780;2023-09-18T11:22:38;30.80;92.10
13346;DHT22;6742;48.036;15.780;2023-09-18T11:25:36;30.50;92.30
13346;DHT22;6742;48.036;15.780;2023-09-18T11:28:04;30.40;93.70
13346;DHT22;6742;48.036;15.780;2023-09-18T11:30:35;30.20;93.40
13346;DHT22;6742;48.036;15.780;2023-09-18T11:33:03;30.10;94.20
13346;DHT22;6742;48.036;15.780;2023-09-18T11:35:32;30.10;95.30
13346;DHT22;6742;48.036;15.780;2023-09-18T11:38:08;30.00;95.00
13346;DHT22;6742;48.036;15.780;2023-09-18T11:40:37;30.10;94.20
13346;DHT22;6742;48.036;15.780;2023-09-18T11:43:24;30.30;94.30
13346;DHT22;6742;48.036;15.780;2023-09-18T11:45:54;30.20;93.60
13346;DHT22;6742;48.036;15.780;2023-09-18T11:48:22;30.20;94.30
13346;DHT22;6742;48.036;15.780;2023-09-18T11:50:52;30.20;93.50
13346;DHT22;6742;48.036;15.780;2023-09-18T11:53:20;30.10;93.50
13346;DHT22;6742;48.036;15.780;2023-09-18T11:55:48;29.80;93.10
13346;DHT22;6742;48.036;15.780;2023-09-18T11:58:15;29.70;94.20
13346;DHT22;6742;48.036;15.780;2023-09-18T12:00:42;29.70;93.90
13346;DHT22;6742;48.036;15.780;2023-09-18T12:03:18;29.80;95.00
13346;DHT22;6742;48.036;15.780;2023-09-18T12:05:55;29.70;93.70
13346;DHT22;6742;48.036;15.780;2023-09-18T12:08:22;29.70;94.00
13346;DHT22;6742;48.036;15.780;2023-09-18T12:10:52;29.60;93.80
13346;DHT22;6742;48.036;15.780;2023-09-18T12:13:20;29.60;94.80
13346;DHT22;6742;48.036;15.780;2023-09-18T12:15:47;29.70;94.70
13346;DHT22;6742;48.036;15.780;2023-09-18T12:18:15;29.80;95.80
13346;DHT22;6742;48.036;15.780;2023-09-18T12:20:47;29.80;94.00
13346;DHT22;6742;48.036;15.780;2023-09-18T12:23:14;29.60;94.60
13346;DHT22;6742;48.036;15.780;2023-09-18T12:25:42;29.60;94.60
13346;DHT22;6742;48.036;15.780;2023-09-18T12:28:13;29.60;94.40
13346;DHT22;6742;48.036;15.780;2023-09-18T12:30:41;29.50;94.80
13346;DHT22;6742;48.036;15.780;2023-09-18T12:33:08;29.40;94.40
13346;DHT22;6742;48.036;15.780;2023-09-18T12:35:36;29.20;94.50
13346;DHT22;6742;48.036;15.780;2023-09-18T12:38:14;29.10;94.80
13346;DHT22;6742;48.036;15.780;2023-09-18T12:40:41;29.00;94.60
13346;DHT22;6742;48.036;15.780;2023-09-18T12:43:10;28.90;95.00
13346;DHT22;6742;48.036;15.780;2023-09-18T12:45:38;29.10;95.60
13346;DHT22;6742;48.036;15.780;2023-09-18T12:48:06;29.20;94.90
13346;DHT22;6742;48.036;15.780;2023-09-18T12:50:33;29.40;94.90
13346;DHT22;6742;48.036;15.780;2023-09-18T12:53:13;29.40;94.70
13346;DHT22;6742;48.036;15.780;2023-09-18T12:55:41;29.40;94.70
13346;DHT22;6742;48.036;15.780;2023-09-18T12:58:10;29.40;95.20
13346;DHT22;6742;48.036;15.780;2023-09-18T13:00:45;29.30;94.60
13346;DHT22;6742;48.036;15.780;2023-09-18T13:03:12;29.30;95.00
13346;DHT22;6742;48.036;15.780;2023-09-18T13:05:40;29.30;94.70
13346;DHT22;6742;48.036;15.780;2023-09-18T13:08:06;29.20;95.10
13346;DHT22;6742;48.036;15.780;2023-09-18T13:10:43;29.10;95.20
13346;DHT22;6742;48.036;15.780;2023-09-18T13:13:16;29.20;95.00
13346;DHT22;6742;48.036;15.780;2023-09-18T13:15:44;29.20;95.20
13346;DHT22;6742;48.036;15.780;2023-09-18T13:18:13;29.20;95.20
13346;DHT22;6742;48.036;15.780;2023-09-18T13:20:41;29.10;94.20
13346;DHT22;6742;48.036;15.780;2023-09-18T13:23:09;29.00;95.10
13346;DHT22;6742;48.036;15.780;2023-09-18T13:25:38;28.80;94.60
13346;DHT22;6742;48.036;15.780;2023-09-18T13:28:08;28.70;95.30
13346;DHT22;6742;48.036;15.780;2023-09-18T13:30:36;28.50;95.30
13346;DHT22;6742;48.036;15.780;2023-09-18T13:33:05;28.50;96.10
13346;DHT22;6742;48.036;15.780;2023-09-18T13:35:33;28.40;95.80
13346;DHT22;6742;48.036;15.780;2023-09-18T13:38:00;28.40;96.20
13346;DHT22;6742;48.036;15.780;2023-09-18T13:40:28;28.30;95.70
13346;DHT22;6742;48.036;15.780;2023-09-18T13:42:54;28.40;96.90
13346;DHT22;6742;48.036;15.780;2023-09-18T13:45:23;28.30;96.30
13346;DHT22;6742;48.036;15.780;2023-09-18T13:47:50;28.20;96.30
13346;DHT22;6742;48.036;15.780;2023-09-18T13:50:17;28.10;96.50
13346;DHT22;6742;48.036;15.780;2023-09-18T13:52:44;28.00;96.60
13346;DHT22;6742;48.036;15.780;2023-09-18T13:55:11;27.90;96.80
13346;DHT22;6742;48.036;15.780;2023-09-18T13:57:38;27.80;96.80
13346;DHT22;6742;48.036;15.780;2023-09-18T14:00:07;27.60;97.30
13346;DHT22;6742;48.036;15.780;2023-09-18T14:02:38;27.60;98.00
13346;DHT22;6742;48.036;15.780;2023-09-18T14:05:06;27.50;97.70
13346;DHT22;6742;48.036;15.780;2023-09-18T14:07:33;27.50;98.00
13346;DHT22;6742;48.036;15.780;2023-09-18T14:10:00;27.50;98.20
13346;DHT22;6742;48.036;15.780;2023-09-18T14:12:29;27.40;97.40
13346;DHT22;6742;48.036;15.780;2023-09-18T14:14:57;27.40;97.50
13346;DHT22;6742;48.036;15.780;2023-09-18T14:17:25;27.40;97.70
13346;DHT22;6742;48.036;15.780;2023-09-18T14:19:53;27.30;98.20
13346;DHT22;6742;48.036;15.780;2023-09-18T14:22:20;27.20;99.00
13346;DHT22;6742;48.036;15.780;2023-09-18T14:24:47;27.00;99.40
13346;DHT22;6742;48.036;15.780;2023-09-18T14:27:14;27.00;99.10
13346;DHT22;6742;48.036;15.780;2023-09-18T14:29:41;27.00;98.70
13346;DHT22;6742;48.036;15.780;2023-09-18T14:32:08;26.90;98.60
13346;DHT22;6742;48.036;15.780;2023-09-18T14:34:35;26.80;98.70
13346;DHT22;6742;48.036;15.780;2023-09-18T14:37:04;26.70;98.90
13346;DHT22;6742;48.036;15.780;2023-09-18T14:39:31;26.70;99.60
13346;DHT22;6742;48.036;15.780;2023-09-18T14:41:58;26.80;99.50
13346;DHT22;6742;48.036;15.780;2023-09-18T14:44:25;26.80;99.90
13346;DHT22;6742;48.036;15.780;2023-09-18T14:46:53;26.70;98.90
13346;DHT22;6742;48.036;15.780;2023-09-18T14:49:20;26.70;99.00
13346;DHT22;6742;48.036;15.780;2023-09-18T14:51:47;26.70;99.40
13346;DHT22;6742;48.036;15.780;2023-09-18T14:54:16;26.60;99.60
13346;DHT22;6742;48.036;15.780;2023-09-18T14:56:43;26.60;99.80
13346;DHT22;6742;48.036;15.780;2023-09-18T14:59:12;26.60;99.90
13346;DHT22;6742;48.036;15.780;2023-09-18T15:01:39;26.50;99.50
13346;DHT22;6742;48.036;15.780;2023-09-18T15:04:08;26.40;99.90
13346;DHT22;6742;48.036;15.780;2023-09-18T15:06:35;26.40;99.90
13346;DHT22;6742;48.036;15.780;2023-09-18T15:09:02;26.30;99.90
13346;DHT22;6742;48.036;15.780;2023-09-18T15:11:31;26.30;99.90
13346;DHT22;6742;48.036;15.780;2023-09-18T15:14:00;26.30;99.90
13346;DHT22;6742;48.036;15.780;2023-09-18T15:16:27;26.20;99.90
13346;DHT22;6742;48.036;15.780;2023-09-18T15:18:55;26.20;99.90
13346;DHT22;6742;48.036;15.780;2023-09-18T15:21:24;26.20;99.90
13346;DHT22;6742;48.036;15.780;2023-09-18T15:23:51;26.20;99.90
13346;DHT22;6742;48.036;15.780;2023-09-18T15:26:18;26.10;99.90
13346;DHT22;6742;48.036;15.780;2023-09-18T15:28:47;26.00;99.90
13346;DHT22;6742;48.036;15.780;2023-09-18T15:31:14;26.00;99.90
13346;DHT22;6742;48.036;15.780;2023-09-18T15:33:41;25.90;99.90
13346;DHT22;6742;48.036;15.780;2023-09-18T15:36:08;25.90;99.90
13346;DHT22;6742;48.036;15.780;2023-09-18T15:38:35;25.90;99.90